createdAt,value
2023-01-19T00:00:04.340Z,2.79
2023-01-19T00:01:04.265Z,2.77
2023-01-19T00:02:04.330Z,2.75
2023-01-19T00:04:04.289Z,2.74
2023-01-19T00:05:04.294Z,2.76
2023-01-19T00:06:04.383Z,2.79
2023-01-19T00:07:04.322Z,2.77
2023-01-19T00:08:04.319Z,2.74
2023-01-19T00:09:04.290Z,2.70
2023-01-19T00:10:04.364Z,2.66
2023-01-19T00:11:04.319Z,2.62
2023-01-19T00:12:04.321Z,2.60
2023-01-19T00:13:04.371Z,2.59
2023-01-19T00:14:04.348Z,2.56
2023-01-19T00:15:04.336Z,2.55
2023-01-19T00:16:04.322Z,2.53
2023-01-19T00:18:04.413Z,2.52
2023-01-19T00:20:04.375Z,2.51
2023-01-19T00:21:04.298Z,2.52
2023-01-19T00:23:04.320Z,2.54
2023-01-19T00:25:04.318Z,2.53
2023-01-19T00:26:04.307Z,2.55
2023-01-19T00:27:04.395Z,2.56
2023-01-19T00:29:04.368Z,2.55
2023-01-19T00:31:04.470Z,2.53
2023-01-19T00:32:04.346Z,2.54
2023-01-19T00:33:04.359Z,2.52
2023-01-19T00:34:04.333Z,2.50
2023-01-19T00:35:04.372Z,2.49
2023-01-19T00:36:04.381Z,2.46
2023-01-19T00:37:04.383Z,2.45
2023-01-19T00:39:04.397Z,2.43
2023-01-19T00:41:04.385Z,2.45
2023-01-19T00:42:04.405Z,2.43
2023-01-19T00:43:04.424Z,2.44
2023-01-19T00:45:04.377Z,2.43
2023-01-19T00:47:04.392Z,2.42
2023-01-19T00:49:04.393Z,2.43
2023-01-19T00:50:04.370Z,2.44
2023-01-19T00:51:04.384Z,2.45
2023-01-19T00:52:04.449Z,2.43
2023-01-19T00:54:04.387Z,2.42
2023-01-19T00:57:04.399Z,2.40
2023-01-19T00:59:04.432Z,2.38
2023-01-19T01:00:04.472Z,2.34
2023-01-19T01:01:04.506Z,2.33
2023-01-19T01:02:04.641Z,2.31
2023-01-19T01:03:04.961Z,2.30
2023-01-19T01:04:04.402Z,2.28
2023-01-19T01:06:04.443Z,2.25
2023-01-19T01:07:04.407Z,2.23
2023-01-19T01:09:04.418Z,2.24
2023-01-19T01:10:04.422Z,2.27
2023-01-19T01:12:04.468Z,2.28
2023-01-19T01:13:20.012Z,2.27
2023-01-19T01:14:04.471Z,2.26
2023-01-19T01:15:04.476Z,2.24
2023-01-19T01:16:04.584Z,2.22
2023-01-19T01:18:04.491Z,2.24
2023-01-19T01:19:04.491Z,2.27
2023-01-19T01:21:04.517Z,2.26
2023-01-19T01:22:04.509Z,2.25
2023-01-19T01:23:04.776Z,2.24
2023-01-19T01:24:04.494Z,2.25
2023-01-19T01:25:04.472Z,2.26
2023-01-19T01:26:04.458Z,2.29
2023-01-19T01:27:04.481Z,2.30
2023-01-19T01:28:04.500Z,2.29
2023-01-19T01:30:04.604Z,2.28
2023-01-19T01:31:04.507Z,2.27
2023-01-19T01:33:04.474Z,2.26
2023-01-19T01:34:04.545Z,2.25
2023-01-19T01:35:04.494Z,2.22
2023-01-19T01:36:04.533Z,2.21
2023-01-19T01:37:04.486Z,2.20
2023-01-19T01:39:04.514Z,2.18
2023-01-19T01:40:04.527Z,2.16
2023-01-19T01:41:04.536Z,2.17
2023-01-19T01:42:04.579Z,2.14
2023-01-19T01:43:04.520Z,2.11
2023-01-19T01:44:04.520Z,2.12
2023-01-19T01:45:04.501Z,2.11
2023-01-19T01:46:04.591Z,2.12
2023-01-19T01:47:04.572Z,2.11
2023-01-19T01:48:04.515Z,2.07
2023-01-19T01:49:04.531Z,1.97
2023-01-19T01:50:04.543Z,1.94
2023-01-19T01:51:04.548Z,1.93
2023-01-19T01:53:06.458Z,1.94
2023-01-19T01:54:04.557Z,1.88
2023-01-19T01:55:04.566Z,1.86
2023-01-19T01:56:04.546Z,1.80
2023-01-19T01:57:04.553Z,1.77
2023-01-19T01:58:04.572Z,1.75
2023-01-19T01:59:04.540Z,1.74
2023-01-19T02:00:04.530Z,1.78
2023-01-19T02:01:04.695Z,1.80
2023-01-19T02:02:04.671Z,1.83
2023-01-19T02:03:04.772Z,1.85
2023-01-19T02:06:04.555Z,1.86
2023-01-19T02:08:04.604Z,1.89
2023-01-19T02:09:04.596Z,1.88
2023-01-19T02:10:04.574Z,1.86
2023-01-19T02:11:04.632Z,1.85
2023-01-19T02:15:04.590Z,1.86
2023-01-19T02:16:04.643Z,1.84
2023-01-19T02:17:04.623Z,1.85
2023-01-19T02:18:04.625Z,1.87
2023-01-19T02:19:04.737Z,1.85
2023-01-19T02:20:04.651Z,1.84
2023-01-19T02:21:04.647Z,1.81
2023-01-19T02:22:04.618Z,1.80
2023-01-19T02:23:04.624Z,1.79
2023-01-19T02:24:04.637Z,1.77
2023-01-19T02:26:04.595Z,1.76
2023-01-19T02:27:04.612Z,1.74
2023-01-19T02:28:04.646Z,1.73
2023-01-19T02:30:04.590Z,1.72
2023-01-19T02:31:04.674Z,1.71
2023-01-19T02:32:04.741Z,1.69
2023-01-19T02:33:04.670Z,1.68
2023-01-19T02:34:04.669Z,1.67
2023-01-19T02:35:04.619Z,1.65
2023-01-19T02:36:04.666Z,1.66
2023-01-19T02:38:04.662Z,1.67
2023-01-19T02:39:04.621Z,1.70
2023-01-19T02:40:04.636Z,1.71
2023-01-19T02:41:04.664Z,1.72
2023-01-19T02:42:04.644Z,1.73
2023-01-19T02:43:04.675Z,1.74
2023-01-19T02:45:04.729Z,1.76
2023-01-19T02:46:04.710Z,1.78
2023-01-19T02:47:04.648Z,1.77
2023-01-19T02:48:04.686Z,1.75
2023-01-19T02:49:04.691Z,1.73
2023-01-19T02:50:04.686Z,1.71
2023-01-19T02:52:04.682Z,1.73
2023-01-19T02:53:04.659Z,1.74
2023-01-19T02:54:04.719Z,1.76
2023-01-19T02:56:04.692Z,1.75
2023-01-19T02:57:04.720Z,1.74
2023-01-19T02:58:04.762Z,1.75
2023-01-19T02:59:04.685Z,1.77
2023-01-19T03:00:04.717Z,1.78
2023-01-19T03:01:04.821Z,1.79
2023-01-19T03:05:05.194Z,1.78
2023-01-19T03:06:04.699Z,1.80
2023-01-19T03:07:04.729Z,1.85
2023-01-19T03:08:04.726Z,1.81
2023-01-19T03:09:04.679Z,1.78
2023-01-19T03:10:04.765Z,1.77
2023-01-19T03:14:04.770Z,1.79
2023-01-19T03:15:04.751Z,1.76
2023-01-19T03:17:04.763Z,1.72
2023-01-19T03:18:04.751Z,1.70
2023-01-19T03:20:04.827Z,1.68
2023-01-19T03:21:04.741Z,1.66
2023-01-19T03:22:04.780Z,1.62
2023-01-19T03:23:04.727Z,1.59
2023-01-19T03:25:04.799Z,1.60
2023-01-19T03:26:04.763Z,1.59
2023-01-19T03:27:04.824Z,1.60
2023-01-19T03:28:04.776Z,1.55
2023-01-19T03:29:04.749Z,1.52
2023-01-19T03:30:04.742Z,1.50
2023-01-19T03:31:04.886Z,1.52
2023-01-19T03:32:04.788Z,1.46
2023-01-19T03:34:04.768Z,1.45
2023-01-19T03:36:04.817Z,1.44
2023-01-19T03:37:04.762Z,1.47
2023-01-19T03:39:04.778Z,1.51
2023-01-19T03:40:04.832Z,1.50
2023-01-19T03:41:04.770Z,1.47
2023-01-19T03:42:04.797Z,1.39
2023-01-19T03:43:04.812Z,1.35
2023-01-19T03:44:04.796Z,1.34
2023-01-19T03:45:04.784Z,1.36
2023-01-19T03:46:04.832Z,1.38
2023-01-19T03:47:04.836Z,1.36
2023-01-19T03:48:04.784Z,1.35
2023-01-19T03:49:04.793Z,1.33
2023-01-19T03:50:04.831Z,1.36
2023-01-19T03:52:04.815Z,1.35
2023-01-19T03:53:04.859Z,1.37
2023-01-19T03:54:04.837Z,1.28
2023-01-19T03:55:04.835Z,1.22
2023-01-19T03:56:04.815Z,1.17
2023-01-19T03:57:04.824Z,1.13
2023-01-19T03:58:04.799Z,1.10
2023-01-19T03:59:04.873Z,1.05
2023-01-19T04:00:04.814Z,1.00
2023-01-19T04:01:04.864Z,0.99
2023-01-19T04:02:04.832Z,1.00
2023-01-19T04:03:05.177Z,1.02
2023-01-19T04:04:04.871Z,1.04
2023-01-19T04:05:04.834Z,1.07
2023-01-19T04:06:04.832Z,1.08
2023-01-19T04:07:04.872Z,1.11
2023-01-19T04:08:04.873Z,1.12
2023-01-19T04:09:04.878Z,1.14
2023-01-19T04:10:04.884Z,1.13
2023-01-19T04:11:04.863Z,1.14
2023-01-19T04:13:04.887Z,1.15
2023-01-19T04:15:04.875Z,1.17
2023-01-19T04:16:04.984Z,1.18
2023-01-19T04:17:04.919Z,1.20
2023-01-19T04:18:04.898Z,1.21
2023-01-19T04:19:04.904Z,1.19
2023-01-19T04:20:04.874Z,1.18
2023-01-19T04:21:04.891Z,1.19
2023-01-19T04:22:04.899Z,1.21
2023-01-19T04:23:04.871Z,1.20
2023-01-19T04:24:04.956Z,1.23
2023-01-19T04:25:04.929Z,1.22
2023-01-19T04:28:04.902Z,1.19
2023-01-19T04:29:04.916Z,1.18
2023-01-19T04:30:04.888Z,1.17
2023-01-19T04:31:04.926Z,1.16
2023-01-19T04:32:04.939Z,1.14
2023-01-19T04:33:04.905Z,1.13
2023-01-19T04:34:04.887Z,1.11
2023-01-19T04:35:04.901Z,1.02
2023-01-19T04:36:04.906Z,1.00
2023-01-19T04:37:04.987Z,1.02
2023-01-19T04:39:04.933Z,0.99
2023-01-19T04:41:04.946Z,0.97
2023-01-19T04:42:04.915Z,0.99
2023-01-19T04:43:04.959Z,1.00
2023-01-19T04:44:04.943Z,1.01
2023-01-19T04:45:04.968Z,1.06
2023-01-19T04:46:04.963Z,0.98
2023-01-19T04:47:04.964Z,0.91
2023-01-19T04:48:04.945Z,0.87
2023-01-19T04:50:04.990Z,0.88
2023-01-19T04:51:05.005Z,0.87
2023-01-19T04:53:05.010Z,0.85
2023-01-19T04:55:04.992Z,0.80
2023-01-19T04:56:04.964Z,0.84
2023-01-19T04:57:04.955Z,0.87
2023-01-19T04:58:05.046Z,0.83
2023-01-19T05:00:05.003Z,0.80
2023-01-19T05:01:05.036Z,0.79
2023-01-19T05:02:04.997Z,0.81
2023-01-19T05:03:05.490Z,0.80
2023-01-19T05:04:04.980Z,0.66
2023-01-19T05:05:05.031Z,0.64
2023-01-19T05:06:04.997Z,0.66
2023-01-19T05:07:04.989Z,0.68
2023-01-19T05:08:05.010Z,0.70
2023-01-19T05:09:04.991Z,0.72
2023-01-19T05:10:04.985Z,0.71
2023-01-19T05:11:05.043Z,0.66
2023-01-19T05:12:05.002Z,0.55
2023-01-19T05:13:05.022Z,0.53
2023-01-19T05:14:05.064Z,0.55
2023-01-19T05:15:05.011Z,0.59
2023-01-19T05:16:05.062Z,0.64
2023-01-19T05:17:05.056Z,0.72
2023-01-19T05:18:04.993Z,0.77
2023-01-19T05:19:05.009Z,0.84
2023-01-19T05:20:05.133Z,0.87
2023-01-19T05:22:05.072Z,0.89
2023-01-19T05:23:05.051Z,0.91
2023-01-19T05:24:05.028Z,0.92
2023-01-19T05:25:05.055Z,0.79
2023-01-19T05:26:05.040Z,0.62
2023-01-19T05:27:05.049Z,0.48
2023-01-19T05:28:05.074Z,0.42
2023-01-19T05:29:05.050Z,0.43
2023-01-19T05:30:05.064Z,0.45
2023-01-19T05:31:05.248Z,0.46
2023-01-19T05:32:05.106Z,0.38
2023-01-19T05:33:05.077Z,0.35
2023-01-19T05:34:05.080Z,0.28
2023-01-19T05:35:05.092Z,0.27
2023-01-19T05:36:05.103Z,0.33
2023-01-19T05:37:05.083Z,0.36
2023-01-19T05:38:05.089Z,0.39
2023-01-19T05:39:05.044Z,0.43
2023-01-19T05:40:05.055Z,0.49
2023-01-19T05:41:05.063Z,0.50
2023-01-19T05:42:05.081Z,0.51
2023-01-19T05:43:05.571Z,0.48
2023-01-19T05:44:05.094Z,0.40
2023-01-19T05:45:05.065Z,0.42
2023-01-19T05:46:05.097Z,0.46
2023-01-19T05:47:05.099Z,0.41
2023-01-19T05:48:05.100Z,0.44
2023-01-19T05:49:05.200Z,0.45
2023-01-19T05:50:05.148Z,0.49
2023-01-19T05:51:05.150Z,0.51
2023-01-19T05:52:05.141Z,0.53
2023-01-19T05:53:05.147Z,0.56
2023-01-19T05:54:05.130Z,0.59
2023-01-19T05:55:05.091Z,0.56
2023-01-19T05:56:05.150Z,0.57
2023-01-19T05:57:05.144Z,0.55
2023-01-19T05:58:05.087Z,0.48
2023-01-19T05:59:05.101Z,0.44
2023-01-19T06:00:05.152Z,0.47
2023-01-19T06:01:05.177Z,0.40
2023-01-19T06:03:05.377Z,0.36
2023-01-19T06:04:05.150Z,0.38
2023-01-19T06:05:05.168Z,0.26
2023-01-19T06:06:05.154Z,0.20
2023-01-19T06:07:05.157Z,0.17
2023-01-19T06:08:05.122Z,0.19
2023-01-19T06:10:05.177Z,0.13
2023-01-19T06:11:05.161Z,0.11
2023-01-19T06:12:05.167Z,-0.01
2023-01-19T06:13:05.166Z,-0.15
2023-01-19T06:14:05.169Z,-0.22
2023-01-19T06:15:05.217Z,-0.35
2023-01-19T06:16:05.262Z,-0.47
2023-01-19T06:17:05.168Z,-0.38
2023-01-19T06:18:05.190Z,-0.36
2023-01-19T06:19:05.179Z,-0.27
2023-01-19T06:20:05.194Z,-0.18
2023-01-19T06:21:05.210Z,-0.12
2023-01-19T06:22:05.239Z,-0.05
2023-01-19T06:23:05.209Z,0.00
2023-01-19T06:24:05.191Z,-0.16
2023-01-19T06:25:05.195Z,-0.22
2023-01-19T06:26:05.233Z,-0.49
2023-01-19T06:27:05.160Z,-0.70
2023-01-19T06:28:05.174Z,-0.64
2023-01-19T06:29:05.213Z,-0.54
2023-01-19T06:30:05.248Z,-0.51
2023-01-19T06:31:05.266Z,-0.43
2023-01-19T06:32:05.253Z,-0.35
2023-01-19T06:33:05.192Z,-0.24
2023-01-19T06:34:05.222Z,-0.17
2023-01-19T06:35:05.197Z,-0.10
2023-01-19T06:36:05.203Z,-0.02
2023-01-19T06:37:05.212Z,0.01
2023-01-19T06:38:05.220Z,0.07
2023-01-19T06:39:05.227Z,0.18
2023-01-19T06:40:05.242Z,0.27
2023-01-19T06:41:05.247Z,0.35
2023-01-19T06:42:05.234Z,0.44
2023-01-19T06:43:05.241Z,0.48
2023-01-19T06:44:05.227Z,0.49
2023-01-19T06:45:05.214Z,0.51
2023-01-19T06:46:05.276Z,0.56
2023-01-19T06:47:15.594Z,0.61
2023-01-19T06:48:05.256Z,0.66
2023-01-19T06:49:05.264Z,0.71
2023-01-19T06:50:05.251Z,0.74
2023-01-19T06:51:05.263Z,0.77
2023-01-19T06:52:05.222Z,0.82
2023-01-19T06:53:05.225Z,0.86
2023-01-19T06:56:06.194Z,0.85
2023-01-19T06:57:05.283Z,0.75
2023-01-19T06:58:05.282Z,0.71
2023-01-19T06:59:05.277Z,0.70
2023-01-19T07:00:05.271Z,0.71
2023-01-19T07:01:05.462Z,0.76
2023-01-19T07:02:26.270Z,0.80
2023-01-19T07:03:05.464Z,0.85
2023-01-19T07:04:05.276Z,0.89
2023-01-19T07:05:05.242Z,0.92
2023-01-19T07:06:05.290Z,0.96
2023-01-19T07:07:05.337Z,0.97
2023-01-19T07:08:05.315Z,0.99
2023-01-19T07:09:05.293Z,1.00
2023-01-19T07:11:23.584Z,1.01
2023-01-19T07:12:05.324Z,1.04
2023-01-19T07:13:05.265Z,1.09
2023-01-19T07:15:05.339Z,1.10
2023-01-19T07:16:06.660Z,1.09
2023-01-19T07:17:05.288Z,1.07
2023-01-19T07:18:05.349Z,1.09
2023-01-19T07:19:05.306Z,1.11
2023-01-19T07:20:05.358Z,1.14
2023-01-19T07:21:05.349Z,1.16
2023-01-19T07:22:05.320Z,1.17
2023-01-19T07:23:05.575Z,1.20
2023-01-19T07:24:05.296Z,1.24
2023-01-19T07:25:05.312Z,1.19
2023-01-19T07:26:05.306Z,1.09
2023-01-19T07:27:05.334Z,1.05
2023-01-19T07:28:05.372Z,0.91
2023-01-19T07:29:05.365Z,0.73
2023-01-19T07:30:05.299Z,0.60
2023-01-19T07:31:05.467Z,0.55
2023-01-19T07:32:05.321Z,0.44
2023-01-19T07:33:05.353Z,0.45
2023-01-19T07:34:05.332Z,0.44
2023-01-19T07:35:05.384Z,0.40
2023-01-19T07:37:05.332Z,0.42
2023-01-19T07:38:05.373Z,0.39
2023-01-19T07:39:05.373Z,0.45
2023-01-19T07:40:05.372Z,0.54
2023-01-19T07:41:05.452Z,0.60
2023-01-19T07:42:05.387Z,0.69
2023-01-19T07:43:05.387Z,0.79
2023-01-19T07:44:05.424Z,0.85
2023-01-19T07:45:05.340Z,0.80
2023-01-19T07:46:05.519Z,0.81
2023-01-19T07:47:05.395Z,0.77
2023-01-19T07:48:05.394Z,0.64
2023-01-19T07:49:05.382Z,0.62
2023-01-19T07:50:05.384Z,0.61
2023-01-19T07:51:05.560Z,0.52
2023-01-19T07:52:05.387Z,0.56
2023-01-19T07:53:05.449Z,0.61
2023-01-19T07:54:05.366Z,0.73
2023-01-19T07:55:05.412Z,0.79
2023-01-19T07:56:05.444Z,0.88
2023-01-19T07:57:05.464Z,0.77
2023-01-19T07:58:05.415Z,0.80
2023-01-19T07:59:05.407Z,0.83
2023-01-19T08:00:05.387Z,0.85
2023-01-19T08:01:05.562Z,0.89
2023-01-19T08:02:05.619Z,0.96
2023-01-19T08:03:05.528Z,1.03
2023-01-19T08:04:05.432Z,1.09
2023-01-19T08:05:05.458Z,1.01
2023-01-19T08:06:05.421Z,0.97
2023-01-19T08:07:05.448Z,0.87
2023-01-19T08:09:05.767Z,0.85
2023-01-19T08:10:05.539Z,0.80
2023-01-19T08:12:05.453Z,0.87
2023-01-19T08:13:05.464Z,0.99
2023-01-19T08:14:07.757Z,1.08
2023-01-19T08:15:05.968Z,1.12
2023-01-19T08:16:05.573Z,1.13
2023-01-19T08:17:05.488Z,0.95
2023-01-19T08:18:05.474Z,0.85
2023-01-19T08:19:05.477Z,0.72
2023-01-19T08:20:05.457Z,0.82
2023-01-19T08:21:05.504Z,1.01
2023-01-19T08:22:05.472Z,1.16
2023-01-19T08:23:05.506Z,1.34
2023-01-19T08:24:05.617Z,1.55
2023-01-19T08:25:05.473Z,1.69
2023-01-19T08:26:05.505Z,1.85
2023-01-19T08:27:06.035Z,1.95
2023-01-19T08:28:05.484Z,2.12
2023-01-19T08:29:05.472Z,2.13
2023-01-19T08:30:05.504Z,2.18
2023-01-19T08:31:19.205Z,2.23
2023-01-19T08:33:05.485Z,2.20
2023-01-19T08:34:05.472Z,2.08
2023-01-19T08:35:05.458Z,2.15
2023-01-19T08:36:05.471Z,2.20
2023-01-19T08:37:05.482Z,2.33
2023-01-19T08:38:05.521Z,2.45
2023-01-19T08:39:05.581Z,2.48
2023-01-19T08:40:05.481Z,2.56
2023-01-19T08:41:05.531Z,2.59
2023-01-19T08:42:05.495Z,2.61
2023-01-19T08:43:05.516Z,2.62
2023-01-19T08:44:05.544Z,2.64
2023-01-19T08:45:05.751Z,2.69
2023-01-19T08:46:05.516Z,2.70
2023-01-19T08:47:05.584Z,2.71
2023-01-19T08:48:05.532Z,2.76
2023-01-19T08:49:05.510Z,2.79
2023-01-19T08:50:05.499Z,2.81
2023-01-19T08:51:05.784Z,2.90
2023-01-19T08:52:05.531Z,2.94
2023-01-19T08:53:05.494Z,2.99
2023-01-19T08:54:05.552Z,3.06
2023-01-19T08:55:05.515Z,3.19
2023-01-19T08:56:05.548Z,3.32
2023-01-19T08:57:05.581Z,3.59
2023-01-19T08:58:05.562Z,3.95
2023-01-19T08:59:09.814Z,3.97
2023-01-19T09:00:05.573Z,3.99
2023-01-19T09:01:05.571Z,3.95
2023-01-19T09:02:05.578Z,3.94
2023-01-19T09:03:06.182Z,3.91
2023-01-19T09:04:05.582Z,3.92
2023-01-19T09:05:05.597Z,3.95
2023-01-19T09:06:05.584Z,4.02
2023-01-19T09:08:05.572Z,4.25
2023-01-19T09:09:05.615Z,4.42
2023-01-19T09:10:05.625Z,5.29
2023-01-19T09:11:05.540Z,6.87
2023-01-19T09:12:05.586Z,8.15
2023-01-19T09:13:05.580Z,8.94
2023-01-19T09:14:05.577Z,9.59
2023-01-19T09:15:06.243Z,9.65
2023-01-19T09:16:05.651Z,9.51
2023-01-19T09:17:05.575Z,9.47
2023-01-19T09:19:05.597Z,10.14
2023-01-19T09:20:05.612Z,10.82
2023-01-19T09:21:05.672Z,11.44
2023-01-19T09:22:05.633Z,12.07
2023-01-19T09:23:05.631Z,12.67
2023-01-19T09:24:05.613Z,13.22
2023-01-19T09:25:05.606Z,13.74
2023-01-19T09:26:05.618Z,14.26
2023-01-19T09:27:05.610Z,14.74
2023-01-19T09:28:05.626Z,15.34
2023-01-19T09:29:05.639Z,15.80
2023-01-19T09:30:05.592Z,16.13
2023-01-19T09:31:05.761Z,16.38
2023-01-19T09:32:05.634Z,16.67
2023-01-19T09:33:05.797Z,16.88
2023-01-19T09:34:05.650Z,16.99
2023-01-19T09:35:05.656Z,17.26
2023-01-19T09:36:05.645Z,17.55
2023-01-19T09:37:05.661Z,17.40
2023-01-19T09:38:05.637Z,17.47
2023-01-19T09:39:05.744Z,17.25
2023-01-19T09:40:05.791Z,17.74
2023-01-19T09:41:05.635Z,17.15
2023-01-19T09:42:05.623Z,17.42
2023-01-19T09:43:05.675Z,16.89
2023-01-19T09:44:05.668Z,15.98
2023-01-19T09:45:05.759Z,16.02
2023-01-19T09:46:05.749Z,16.59
2023-01-19T09:47:05.721Z,17.06
2023-01-19T09:48:05.640Z,17.35
2023-01-19T09:49:05.666Z,17.70
2023-01-19T09:50:05.702Z,18.07
2023-01-19T09:51:05.708Z,18.38
2023-01-19T09:52:05.718Z,18.68
2023-01-19T09:53:05.680Z,18.93
2023-01-19T09:54:05.767Z,19.10
2023-01-19T09:55:05.682Z,19.26
2023-01-19T09:56:05.656Z,19.42
2023-01-19T09:57:05.753Z,19.63
2023-01-19T09:58:05.680Z,19.52
2023-01-19T09:59:05.724Z,19.53
2023-01-19T10:00:05.760Z,19.51
2023-01-19T10:01:05.815Z,19.71
2023-01-19T10:02:05.723Z,19.92
2023-01-19T10:03:06.697Z,20.05
2023-01-19T10:04:05.694Z,20.10
2023-01-19T10:05:05.690Z,20.02
2023-01-19T10:06:05.720Z,20.15
2023-01-19T10:07:05.741Z,20.12
2023-01-19T10:08:05.726Z,20.29
2023-01-19T10:09:05.761Z,20.41
2023-01-19T10:10:05.741Z,20.35
2023-01-19T10:11:05.747Z,20.38
2023-01-19T10:12:05.721Z,20.40
2023-01-19T10:13:05.712Z,20.13
2023-01-19T10:14:05.706Z,19.52
2023-01-19T10:15:05.762Z,19.40
2023-01-19T10:16:05.805Z,19.33
2023-01-19T10:17:05.759Z,18.93
2023-01-19T10:18:05.749Z,18.44
2023-01-19T10:19:05.750Z,17.83
2023-01-19T10:20:05.752Z,16.97
2023-01-19T10:21:05.956Z,16.01
2023-01-19T10:22:05.797Z,15.02
2023-01-19T10:23:05.741Z,14.27
2023-01-19T10:24:05.934Z,13.67
2023-01-19T10:25:05.749Z,13.15
2023-01-19T10:26:05.731Z,12.67
2023-01-19T10:27:05.811Z,12.26
2023-01-19T10:28:05.763Z,11.87
2023-01-19T10:29:05.849Z,11.48
2023-01-19T10:30:05.790Z,11.09
2023-01-19T10:31:05.903Z,10.75
2023-01-19T10:32:05.809Z,10.39
2023-01-19T10:33:05.779Z,10.05
2023-01-19T10:34:05.813Z,9.82
2023-01-19T10:35:05.821Z,9.47
2023-01-19T10:36:05.766Z,9.23
2023-01-19T10:37:05.857Z,9.05
2023-01-19T10:38:05.824Z,8.91
2023-01-19T10:39:06.187Z,8.84
2023-01-19T10:40:05.829Z,8.70
2023-01-19T10:41:05.846Z,8.49
2023-01-19T10:42:05.878Z,8.46
2023-01-19T10:43:05.824Z,8.44
2023-01-19T10:44:05.775Z,8.39
2023-01-19T10:45:05.846Z,8.30
2023-01-19T10:46:05.921Z,8.27
2023-01-19T10:47:05.861Z,8.19
2023-01-19T10:48:05.852Z,8.09
2023-01-19T10:49:05.844Z,8.08
2023-01-19T10:50:05.894Z,8.04
2023-01-19T10:51:05.850Z,8.00
2023-01-19T10:52:05.834Z,7.89
2023-01-19T10:53:06.137Z,7.86
2023-01-19T10:54:05.811Z,7.81
2023-01-19T10:55:05.832Z,7.78
2023-01-19T10:56:05.871Z,7.76
2023-01-19T10:57:05.917Z,7.70
2023-01-19T10:58:05.849Z,7.73
2023-01-19T10:59:05.860Z,7.69
2023-01-19T11:00:05.889Z,7.66
2023-01-19T11:01:06.000Z,7.65
2023-01-19T11:02:06.008Z,7.47
2023-01-19T11:03:06.282Z,7.10
2023-01-19T11:04:05.938Z,6.84
2023-01-19T11:05:05.823Z,6.45
2023-01-19T11:06:05.838Z,6.39
2023-01-19T11:07:05.862Z,6.42
2023-01-19T11:08:05.924Z,6.53
2023-01-19T11:09:05.870Z,6.62
2023-01-19T11:10:05.886Z,6.56
2023-01-19T11:11:05.935Z,6.44
2023-01-19T11:12:05.885Z,6.28
2023-01-19T11:13:05.924Z,6.29
2023-01-19T11:14:05.886Z,6.26
2023-01-19T11:15:05.855Z,6.23
2023-01-19T11:16:05.938Z,6.27
2023-01-19T11:17:05.899Z,6.26
2023-01-19T11:18:06.003Z,6.30
2023-01-19T11:19:05.892Z,6.27
2023-01-19T11:20:05.864Z,6.36
2023-01-19T11:21:05.872Z,6.33
2023-01-19T11:22:05.909Z,6.32
2023-01-19T11:23:05.917Z,6.36
2023-01-19T11:24:05.915Z,6.38
2023-01-19T11:25:05.908Z,6.41
2023-01-19T11:26:05.900Z,6.38
2023-01-19T11:27:05.963Z,6.31
2023-01-19T11:28:05.883Z,6.21
2023-01-19T11:29:05.978Z,6.26
2023-01-19T11:30:05.911Z,6.21
2023-01-19T11:32:06.005Z,6.03
2023-01-19T11:33:05.949Z,6.06
2023-01-19T11:34:05.972Z,6.14
2023-01-19T11:35:05.931Z,6.23
2023-01-19T11:36:05.936Z,6.32
2023-01-19T11:37:06.015Z,6.15
2023-01-19T11:38:05.944Z,6.09
2023-01-19T11:39:05.956Z,6.07
2023-01-19T11:40:05.925Z,5.92
2023-01-19T11:41:05.962Z,5.76
2023-01-19T11:42:05.970Z,5.71
2023-01-19T11:43:05.903Z,5.77
2023-01-19T11:44:05.919Z,5.60
2023-01-19T11:45:05.955Z,5.45
2023-01-19T11:46:06.005Z,5.44
2023-01-19T11:47:05.959Z,5.51
2023-01-19T11:48:05.987Z,5.55
2023-01-19T11:49:05.959Z,5.56
2023-01-19T11:50:06.005Z,5.60
2023-01-19T11:51:05.976Z,5.64
2023-01-19T11:52:05.985Z,5.57
2023-01-19T11:53:06.317Z,5.59
2023-01-19T11:54:05.958Z,5.68
2023-01-19T11:55:05.959Z,5.75
2023-01-19T11:56:05.989Z,5.87
2023-01-19T11:57:05.969Z,5.93
2023-01-19T11:58:06.073Z,5.96
2023-01-19T11:59:05.969Z,5.88
2023-01-19T12:00:05.951Z,5.89
2023-01-19T12:01:06.003Z,5.90
2023-01-19T12:02:06.058Z,5.88
2023-01-19T12:03:06.075Z,5.84
2023-01-19T12:04:05.964Z,5.77
2023-01-19T12:05:06.048Z,5.78
2023-01-19T12:06:06.016Z,5.80
2023-01-19T12:07:05.977Z,5.81
2023-01-19T12:08:07.004Z,5.76
2023-01-19T12:09:05.999Z,5.63
2023-01-19T12:10:06.021Z,5.64
2023-01-19T12:11:06.448Z,5.66
2023-01-19T12:12:05.982Z,5.60
2023-01-19T12:13:06.004Z,5.62
2023-01-19T12:14:06.001Z,5.58
2023-01-19T12:15:06.036Z,5.61
2023-01-19T12:16:06.088Z,5.32
2023-01-19T12:17:06.088Z,5.21
2023-01-19T12:18:06.036Z,5.19
2023-01-19T12:19:06.089Z,5.22
2023-01-19T12:20:06.046Z,5.17
2023-01-19T12:21:06.006Z,5.21
2023-01-19T12:22:05.993Z,5.24
2023-01-19T12:23:06.685Z,5.34
2023-01-19T12:24:06.111Z,5.43
2023-01-19T12:25:06.066Z,5.50
2023-01-19T12:26:06.054Z,5.60
2023-01-19T12:27:06.068Z,5.52
2023-01-19T12:28:06.072Z,5.39
2023-01-19T12:29:06.515Z,5.29
2023-01-19T12:30:06.047Z,5.34
2023-01-19T12:31:06.122Z,5.36
2023-01-19T12:32:06.113Z,5.42
2023-01-19T12:33:06.034Z,5.51
2023-01-19T12:34:06.053Z,5.57
2023-01-19T12:35:06.191Z,5.61
2023-01-19T12:36:06.056Z,5.69
2023-01-19T12:37:06.119Z,5.74
2023-01-19T12:38:06.079Z,5.75
2023-01-19T12:39:06.095Z,5.73
2023-01-19T12:40:06.135Z,5.70
2023-01-19T12:41:06.091Z,5.66
2023-01-19T12:42:06.055Z,5.58
2023-01-19T12:43:06.078Z,5.56
2023-01-19T12:45:06.106Z,5.58
2023-01-19T12:47:06.098Z,5.59
2023-01-19T12:49:06.116Z,5.58
2023-01-19T12:50:06.131Z,5.54
2023-01-19T12:51:06.093Z,5.47
2023-01-19T12:52:06.076Z,5.41
2023-01-19T12:53:06.241Z,5.38
2023-01-19T12:54:06.691Z,5.40
2023-01-19T12:55:06.093Z,5.43
2023-01-19T12:56:06.108Z,5.46
2023-01-19T12:57:06.121Z,5.50
2023-01-19T12:58:06.156Z,5.49
2023-01-19T12:59:06.192Z,5.48
2023-01-19T13:00:06.092Z,5.44
2023-01-19T13:01:06.236Z,5.34
2023-01-19T13:02:06.201Z,5.30
2023-01-19T13:03:06.153Z,5.23
2023-01-19T13:04:06.631Z,5.24
2023-01-19T13:05:06.163Z,5.22
2023-01-19T13:06:06.205Z,5.14
2023-01-19T13:07:06.153Z,5.11
2023-01-19T13:08:06.188Z,5.03
2023-01-19T13:09:06.182Z,5.04
2023-01-19T13:10:06.126Z,5.03
2023-01-19T13:11:06.255Z,5.02
2023-01-19T13:12:06.183Z,4.84
2023-01-19T13:13:06.165Z,4.83
2023-01-19T13:14:06.144Z,4.87
2023-01-19T13:15:06.126Z,4.94
2023-01-19T13:16:06.247Z,5.01
2023-01-19T13:17:06.569Z,5.09
2023-01-19T13:18:06.200Z,5.17
2023-01-19T13:19:06.180Z,5.22
2023-01-19T13:20:06.228Z,5.28
2023-01-19T13:21:06.147Z,5.31
2023-01-19T13:22:06.223Z,5.34
2023-01-19T13:23:06.209Z,5.36
2023-01-19T13:26:06.147Z,5.33
2023-01-19T13:27:06.193Z,5.30
2023-01-19T13:28:06.163Z,5.24
2023-01-19T13:29:06.179Z,5.12
2023-01-19T13:30:06.203Z,5.07
2023-01-19T13:31:06.296Z,5.05
2023-01-19T13:33:06.225Z,5.06
2023-01-19T13:34:06.249Z,5.03
2023-01-19T13:35:06.197Z,5.02
2023-01-19T13:36:06.228Z,4.96
2023-01-19T13:37:06.253Z,4.79
2023-01-19T13:38:06.238Z,4.43
2023-01-19T13:39:06.210Z,4.28
2023-01-19T13:40:06.249Z,4.21
2023-01-19T13:41:06.228Z,3.99
2023-01-19T13:42:06.227Z,3.95
2023-01-19T13:43:06.263Z,4.01
2023-01-19T13:44:06.247Z,4.05
2023-01-19T13:45:06.280Z,4.03
2023-01-19T13:46:06.488Z,4.09
2023-01-19T13:47:06.250Z,4.14
2023-01-19T13:48:06.260Z,4.23
2023-01-19T13:49:06.259Z,4.22
2023-01-19T13:50:06.255Z,3.90
2023-01-19T13:51:06.239Z,3.85
2023-01-19T13:53:06.271Z,3.91
2023-01-19T13:54:06.276Z,4.01
2023-01-19T13:55:06.647Z,4.11
2023-01-19T13:56:06.281Z,4.15
2023-01-19T13:57:06.249Z,4.20
2023-01-19T13:58:06.333Z,4.26
2023-01-19T13:59:06.294Z,4.31
2023-01-19T14:00:06.326Z,4.35
2023-01-19T14:01:06.396Z,4.40
2023-01-19T14:02:06.344Z,4.46
2023-01-19T14:03:06.387Z,4.47
2023-01-19T14:04:06.414Z,4.28
2023-01-19T14:05:06.299Z,4.18
2023-01-19T14:06:06.339Z,4.14
2023-01-19T14:07:06.519Z,4.11
2023-01-19T14:08:06.360Z,4.04
2023-01-19T14:10:06.520Z,4.08
2023-01-19T14:11:06.281Z,4.12
2023-01-19T14:12:06.291Z,4.04
2023-01-19T14:13:06.348Z,3.97
2023-01-19T14:14:06.314Z,3.87
2023-01-19T14:15:06.563Z,3.83
2023-01-19T14:16:06.663Z,3.82
2023-01-19T14:17:06.315Z,3.79
2023-01-19T14:18:06.317Z,3.82
2023-01-19T14:19:06.299Z,3.85
2023-01-19T14:20:06.421Z,3.92
2023-01-19T14:21:06.339Z,3.97
2023-01-19T14:22:06.605Z,4.00
2023-01-19T14:23:06.341Z,3.94
2023-01-19T14:24:07.033Z,3.88
2023-01-19T14:25:06.749Z,3.86
2023-01-19T14:27:06.299Z,3.88
2023-01-19T14:28:06.388Z,3.93
2023-01-19T14:29:06.343Z,3.94
2023-01-19T14:30:06.355Z,3.95
2023-01-19T14:31:06.396Z,3.97
2023-01-19T14:32:06.334Z,3.99
2023-01-19T14:33:06.357Z,3.89
2023-01-19T14:34:06.384Z,3.79
2023-01-19T14:35:06.664Z,3.66
2023-01-19T14:36:06.366Z,3.60
2023-01-19T14:37:06.338Z,3.51
2023-01-19T14:38:06.384Z,3.49